sensor_id;sensor_type;location;lat;lon;timestamp;P1;durP1;ratioP1;P2;durP2;ratioP2
42760;SDS011;31672;47.638;19.026;2022-12-18T00:00:07;34.67;;;10.90;;
42760;SDS011;31672;47.638;19.026;2022-12-18T00:05:11;33.30;;;11.70;;
42760;SDS011;31672;47.638;19.026;2022-12-18T00:10:14;33.67;;;11.23;;
42760;SDS011;31672;47.638;19.026;2022-12-18T00:15:17;38.00;;;11.07;;
42760;SDS011;31672;47.638;19.026;2022-12-18T00:20:20;30.00;;;10.37;;
42760;SDS011;31672;47.638;19.026;2022-12-18T00:25:27;31.77;;;10.20;;
42760;SDS011;31672;47.638;19.026;2022-12-18T00:30:30;32.07;;;11.30;;
42760;SDS011;31672;47.638;19.026;2022-12-18T00:35:33;28.47;;;10.03;;
42760;SDS011;31672;47.638;19.026;2022-12-18T00:40:36;30.73;;;10.50;;
42760;SDS011;31672;47.638;19.026;2022-12-18T00:45:39;25.90;;;10.50;;
42760;SDS011;31672;47.638;19.026;2022-12-18T00:50:43;24.77;;;9.70;;
42760;SDS011;31672;47.638;19.026;2022-12-18T00:55:46;30.70;;;9.90;;
42760;SDS011;31672;47.638;19.026;2022-12-18T01:00:49;33.30;;;11.20;;
42760;SDS011;31672;47.638;19.026;2022-12-18T01:05:52;29.60;;;10.73;;
42760;SDS011;31672;47.638;19.026;2022-12-18T01:10:55;30.87;;;11.17;;
42760;SDS011;31672;47.638;19.026;2022-12-18T01:15:58;28.67;;;9.83;;
42760;SDS011;31672;47.638;19.026;2022-12-18T01:21:05;25.67;;;9.57;;
42760;SDS011;31672;47.638;19.026;2022-12-18T01:26:15;32.30;;;10.33;;
42760;SDS011;31672;47.638;19.026;2022-12-18T01:31:19;31.77;;;10.97;;
42760;SDS011;31672;47.638;19.026;2022-12-18T01:36:26;32.97;;;10.60;;
42760;SDS011;31672;47.638;19.026;2022-12-18T01:41:32;29.17;;;10.10;;
42760;SDS011;31672;47.638;19.026;2022-12-18T01:46:55;27.70;;;9.67;;
42760;SDS011;31672;47.638;19.026;2022-12-18T01:51:58;26.87;;;9.27;;
42760;SDS011;31672;47.638;19.026;2022-12-18T01:57:01;31.50;;;9.33;;
42760;SDS011;31672;47.638;19.026;2022-12-18T02:02:04;28.73;;;9.57;;
42760;SDS011;31672;47.638;19.026;2022-12-18T02:13:50;33.87;;;9.93;;
42760;SDS011;31672;47.638;19.026;2022-12-18T02:30:15;28.97;;;9.30;;
42760;SDS011;31672;47.638;19.026;2022-12-18T02:35:23;26.00;;;9.43;;
42760;SDS011;31672;47.638;19.026;2022-12-18T02:40:31;34.40;;;11.17;;
42760;SDS011;31672;47.638;19.026;2022-12-18T02:45:35;28.70;;;9.53;;
42760;SDS011;31672;47.638;19.026;2022-12-18T02:50:39;32.07;;;9.83;;
42760;SDS011;31672;47.638;19.026;2022-12-18T03:07:23;25.23;;;7.77;;
42760;SDS011;31672;47.638;19.026;2022-12-18T03:12:40;24.97;;;9.63;;
42760;SDS011;31672;47.638;19.026;2022-12-18T03:17:59;33.37;;;9.57;;
42760;SDS011;31672;47.638;19.026;2022-12-18T03:23:26;29.50;;;9.27;;
42760;SDS011;31672;47.638;19.026;2022-12-18T03:28:38;23.35;;;6.55;;
42760;SDS011;31672;47.638;19.026;2022-12-18T03:33:51;26.67;;;8.30;;
42760;SDS011;31672;47.638;19.026;2022-12-18T03:38:58;32.93;;;8.73;;
42760;SDS011;31672;47.638;19.026;2022-12-18T03:44:10;29.57;;;7.97;;
42760;SDS011;31672;47.638;19.026;2022-12-18T03:55:13;28.93;;;8.47;;
42760;SDS011;31672;47.638;19.026;2022-12-18T04:00:17;25.57;;;7.63;;
42760;SDS011;31672;47.638;19.026;2022-12-18T04:05:21;28.43;;;8.43;;
42760;SDS011;31672;47.638;19.026;2022-12-18T04:10:28;23.13;;;8.43;;
42760;SDS011;31672;47.638;19.026;2022-12-18T04:15:33;26.70;;;8.17;;
42760;SDS011;31672;47.638;19.026;2022-12-18T04:20:38;30.03;;;9.13;;
42760;SDS011;31672;47.638;19.026;2022-12-18T04:25:41;29.13;;;9.23;;
42760;SDS011;31672;47.638;19.026;2022-12-18T04:30:44;36.77;;;10.43;;
42760;SDS011;31672;47.638;19.026;2022-12-18T04:35:50;36.47;;;9.93;;
42760;SDS011;31672;47.638;19.026;2022-12-18T04:40:53;26.37;;;7.17;;
42760;SDS011;31672;47.638;19.026;2022-12-18T04:46:03;25.83;;;7.63;;
42760;SDS011;31672;47.638;19.026;2022-12-18T04:51:10;34.87;;;10.87;;
42760;SDS011;31672;47.638;19.026;2022-12-18T04:56:14;32.70;;;10.37;;
42760;SDS011;31672;47.638;19.026;2022-12-18T05:01:18;30.70;;;10.43;;
42760;SDS011;31672;47.638;19.026;2022-12-18T05:06:21;33.90;;;9.23;;
42760;SDS011;31672;47.638;19.026;2022-12-18T05:11:24;29.40;;;8.27;;
42760;SDS011;31672;47.638;19.026;2022-12-18T05:16:27;27.40;;;8.97;;
42760;SDS011;31672;47.638;19.026;2022-12-18T05:21:30;26.03;;;8.60;;
42760;SDS011;31672;47.638;19.026;2022-12-18T05:26:34;28.33;;;8.37;;
42760;SDS011;31672;47.638;19.026;2022-12-18T05:31:36;25.70;;;8.37;;
42760;SDS011;31672;47.638;19.026;2022-12-18T05:36:41;20.43;;;7.07;;
42760;SDS011;31672;47.638;19.026;2022-12-18T05:41:44;20.17;;;7.33;;
42760;SDS011;31672;47.638;19.026;2022-12-18T05:46:48;30.80;;;8.70;;
42760;SDS011;31672;47.638;19.026;2022-12-18T05:51:51;31.50;;;9.03;;
42760;SDS011;31672;47.638;19.026;2022-12-18T05:56:53;33.80;;;11.20;;
42760;SDS011;31672;47.638;19.026;2022-12-18T06:01:56;27.53;;;9.23;;
42760;SDS011;31672;47.638;19.026;2022-12-18T06:06:59;29.27;;;9.03;;
42760;SDS011;31672;47.638;19.026;2022-12-18T06:12:05;38.90;;;9.57;;
42760;SDS011;31672;47.638;19.026;2022-12-18T06:17:08;37.93;;;10.50;;
42760;SDS011;31672;47.638;19.026;2022-12-18T06:22:11;26.10;;;9.40;;
42760;SDS011;31672;47.638;19.026;2022-12-18T06:27:14;26.63;;;7.57;;
42760;SDS011;31672;47.638;19.026;2022-12-18T06:43:58;31.23;;;11.00;;
42760;SDS011;31672;47.638;19.026;2022-12-18T06:49:02;37.67;;;11.33;;
42760;SDS011;31672;47.638;19.026;2022-12-18T06:54:05;29.00;;;9.17;;
42760;SDS011;31672;47.638;19.026;2022-12-18T06:59:07;29.67;;;9.97;;
42760;SDS011;31672;47.638;19.026;2022-12-18T07:04:11;20.33;;;8.70;;
42760;SDS011;31672;47.638;19.026;2022-12-18T07:09:14;25.87;;;9.00;;
42760;SDS011;31672;47.638;19.026;2022-12-18T07:14:17;34.00;;;10.10;;
42760;SDS011;31672;47.638;19.026;2022-12-18T07:19:23;39.97;;;14.30;;
42760;SDS011;31672;47.638;19.026;2022-12-18T07:24:26;44.50;;;14.57;;
42760;SDS011;31672;47.638;19.026;2022-12-18T07:29:30;40.40;;;13.70;;
42760;SDS011;31672;47.638;19.026;2022-12-18T07:34:33;39.87;;;13.77;;
42760;SDS011;31672;47.638;19.026;2022-12-18T07:39:37;30.90;;;10.57;;
42760;SDS011;31672;47.638;19.026;2022-12-18T07:44:40;35.00;;;11.90;;
42760;SDS011;31672;47.638;19.026;2022-12-18T07:49:43;26.03;;;11.43;;
42760;SDS011;31672;47.638;19.026;2022-12-18T07:54:46;34.27;;;12.47;;
42760;SDS011;31672;47.638;19.026;2022-12-18T07:59:52;54.70;;;21.60;;
42760;SDS011;31672;47.638;19.026;2022-12-18T08:04:54;40.63;;;16.90;;
42760;SDS011;31672;47.638;19.026;2022-12-18T08:09:57;43.17;;;17.43;;
42760;SDS011;31672;47.638;19.026;2022-12-18T08:15:00;34.50;;;14.53;;
42760;SDS011;31672;47.638;19.026;2022-12-18T08:20:04;31.40;;;12.37;;
42760;SDS011;31672;47.638;19.026;2022-12-18T08:25:08;32.63;;;12.47;;
42760;SDS011;31672;47.638;19.026;2022-12-18T08:30:11;31.97;;;12.60;;
42760;SDS011;31672;47.638;19.026;2022-12-18T08:35:14;30.93;;;12.43;;
42760;SDS011;31672;47.638;19.026;2022-12-18T08:40:19;28.00;;;13.37;;
42760;SDS011;31672;47.638;19.026;2022-12-18T08:45:22;36.40;;;15.23;;
42760;SDS011;31672;47.638;19.026;2022-12-18T08:50:27;36.37;;;15.87;;
42760;SDS011;31672;47.638;19.026;2022-12-18T08:55:30;32.07;;;15.30;;
42760;SDS011;31672;47.638;19.026;2022-12-18T09:00:33;39.23;;;16.27;;
42760;SDS011;31672;47.638;19.026;2022-12-18T09:05:36;37.77;;;16.53;;
42760;SDS011;31672;47.638;19.026;2022-12-18T09:10:45;36.97;;;16.20;;
42760;SDS011;31672;47.638;19.026;2022-12-18T09:15:51;43.72;;;16.98;;
42760;SDS011;31672;47.638;19.026;2022-12-18T09:20:56;45.43;;;18.67;;
42760;SDS011;31672;47.638;19.026;2022-12-18T09:25:59;47.33;;;17.53;;
42760;SDS011;31672;47.638;19.026;2022-12-18T09:31:06;39.13;;;14.83;;
42760;SDS011;31672;47.638;19.026;2022-12-18T09:36:12;44.97;;;18.13;;
42760;SDS011;31672;47.638;19.026;2022-12-18T09:46:54;43.10;;;17.73;;
42760;SDS011;31672;47.638;19.026;2022-12-18T09:52:29;44.30;;;16.07;;
42760;SDS011;31672;47.638;19.026;2022-12-18T09:57:45;39.40;;;15.77;;
42760;SDS011;31672;47.638;19.026;2022-12-18T10:03:01;40.50;;;15.90;;
42760;SDS011;31672;47.638;19.026;2022-12-18T10:30:42;54.17;;;18.23;;
42760;SDS011;31672;47.638;19.026;2022-12-18T10:35:45;50.43;;;18.10;;
42760;SDS011;31672;47.638;19.026;2022-12-18T10:46:04;42.13;;;16.90;;
42760;SDS011;31672;47.638;19.026;2022-12-18T10:51:16;39.53;;;15.00;;
42760;SDS011;31672;47.638;19.026;2022-12-18T10:56:34;38.20;;;14.93;;
42760;SDS011;31672;47.638;19.026;2022-12-18T11:01:46;37.67;;;15.60;;
42760;SDS011;31672;47.638;19.026;2022-12-18T11:07:01;44.40;;;17.67;;
42760;SDS011;31672;47.638;19.026;2022-12-18T11:22:28;44.03;;;17.23;;
42760;SDS011;31672;47.638;19.026;2022-12-18T11:27:37;35.33;;;13.27;;
42760;SDS011;31672;47.638;19.026;2022-12-18T11:32:43;35.73;;;13.27;;
42760;SDS011;31672;47.638;19.026;2022-12-18T11:38:10;42.67;;;14.70;;
42760;SDS011;31672;47.638;19.026;2022-12-18T11:43:38;37.93;;;14.33;;
42760;SDS011;31672;47.638;19.026;2022-12-18T11:54:37;39.37;;;14.40;;
42760;SDS011;31672;47.638;19.026;2022-12-18T12:00:23;35.63;;;13.40;;
42760;SDS011;31672;47.638;19.026;2022-12-18T12:16:22;32.50;;;12.13;;
42760;SDS011;31672;47.638;19.026;2022-12-18T12:33:15;62.17;;;15.53;;
42760;SDS011;31672;47.638;19.026;2022-12-18T12:38:35;36.23;;;10.93;;
42760;SDS011;31672;47.638;19.026;2022-12-18T12:43:53;26.20;;;11.10;;
42760;SDS011;31672;47.638;19.026;2022-12-18T12:49:02;25.17;;;9.63;;
42760;SDS011;31672;47.638;19.026;2022-12-18T12:54:20;34.92;;;12.32;;
42760;SDS011;31672;47.638;19.026;2022-12-18T13:10:39;27.93;;;10.20;;
42760;SDS011;31672;47.638;19.026;2022-12-18T13:15:45;35.13;;;13.83;;
42760;SDS011;31672;47.638;19.026;2022-12-18T13:21:18;25.07;;;11.03;;
42760;SDS011;31672;47.638;19.026;2022-12-18T13:26:29;57.10;;;15.57;;
42760;SDS011;31672;47.638;19.026;2022-12-18T13:36:45;37.27;;;10.67;;
42760;SDS011;31672;47.638;19.026;2022-12-18T13:41:49;38.33;;;10.63;;
42760;SDS011;31672;47.638;19.026;2022-12-18T13:47:34;17.47;;;7.87;;
42760;SDS011;31672;47.638;19.026;2022-12-18T13:52:40;34.53;;;9.80;;
42760;SDS011;31672;47.638;19.026;2022-12-18T13:57:45;46.27;;;12.73;;
42760;SDS011;31672;47.638;19.026;2022-12-18T14:02:49;59.53;;;14.00;;
42760;SDS011;31672;47.638;19.026;2022-12-18T14:07:59;39.40;;;13.37;;
42760;SDS011;31672;47.638;19.026;2022-12-18T14:13:27;38.67;;;14.83;;
42760;SDS011;31672;47.638;19.026;2022-12-18T14:18:38;40.60;;;14.77;;
42760;SDS011;31672;47.638;19.026;2022-12-18T14:23:46;29.77;;;12.60;;
42760;SDS011;31672;47.638;19.026;2022-12-18T14:28:49;32.50;;;13.40;;
42760;SDS011;31672;47.638;19.026;2022-12-18T14:33:53;49.33;;;17.63;;
42760;SDS011;31672;47.638;19.026;2022-12-18T14:38:57;40.00;;;15.97;;
42760;SDS011;31672;47.638;19.026;2022-12-18T14:44:05;47.73;;;16.37;;
42760;SDS011;31672;47.638;19.026;2022-12-18T14:54:37;50.03;;;18.87;;
42760;SDS011;31672;47.638;19.026;2022-12-18T14:59:40;69.77;;;24.33;;
42760;SDS011;31672;47.638;19.026;2022-12-18T15:04:43;86.23;;;26.73;;
42760;SDS011;31672;47.638;19.026;2022-12-18T15:20:41;63.50;;;22.10;;
42760;SDS011;31672;47.638;19.026;2022-12-18T15:36:16;71.53;;;25.90;;
42760;SDS011;31672;47.638;19.026;2022-12-18T15:41:28;52.55;;;17.50;;
42760;SDS011;31672;47.638;19.026;2022-12-18T15:46:35;50.83;;;17.73;;
42760;SDS011;31672;47.638;19.026;2022-12-18T15:51:39;52.33;;;19.67;;
42760;SDS011;31672;47.638;19.026;2022-12-18T15:56:42;48.53;;;19.03;;
42760;SDS011;31672;47.638;19.026;2022-12-18T16:02:07;61.00;;;22.13;;
42760;SDS011;31672;47.638;19.026;2022-12-18T16:07:19;61.30;;;19.47;;
42760;SDS011;31672;47.638;19.026;2022-12-18T16:12:26;50.03;;;18.27;;
42760;SDS011;31672;47.638;19.026;2022-12-18T16:17:29;69.87;;;22.67;;
42760;SDS011;31672;47.638;19.026;2022-12-18T16:22:33;60.17;;;21.63;;
42760;SDS011;31672;47.638;19.026;2022-12-18T16:27:35;49.33;;;19.83;;
42760;SDS011;31672;47.638;19.026;2022-12-18T16:32:38;42.97;;;16.67;;
42760;SDS011;31672;47.638;19.026;2022-12-18T16:37:42;46.33;;;18.17;;
42760;SDS011;31672;47.638;19.026;2022-12-18T16:42:45;65.23;;;22.40;;
42760;SDS011;31672;47.638;19.026;2022-12-18T16:47:48;53.83;;;19.77;;
42760;SDS011;31672;47.638;19.026;2022-12-18T16:52:51;57.83;;;20.10;;
42760;SDS011;31672;47.638;19.026;2022-12-18T16:57:55;49.97;;;18.83;;
42760;SDS011;31672;47.638;19.026;2022-12-18T17:02:58;45.87;;;18.33;;
42760;SDS011;31672;47.638;19.026;2022-12-18T17:08:02;52.33;;;17.27;;
42760;SDS011;31672;47.638;19.026;2022-12-18T17:13:05;52.20;;;18.13;;
42760;SDS011;31672;47.638;19.026;2022-12-18T17:18:07;49.43;;;16.63;;
42760;SDS011;31672;47.638;19.026;2022-12-18T17:23:10;41.93;;;16.57;;
42760;SDS011;31672;47.638;19.026;2022-12-18T17:28:13;45.37;;;18.53;;
42760;SDS011;31672;47.638;19.026;2022-12-18T17:33:16;57.80;;;19.73;;
42760;SDS011;31672;47.638;19.026;2022-12-18T17:38:19;30.83;;;14.93;;
42760;SDS011;31672;47.638;19.026;2022-12-18T17:43:22;49.50;;;17.93;;
42760;SDS011;31672;47.638;19.026;2022-12-18T17:48:25;48.63;;;19.40;;
42760;SDS011;31672;47.638;19.026;2022-12-18T17:53:29;51.37;;;18.00;;
42760;SDS011;31672;47.638;19.026;2022-12-18T17:58:33;50.27;;;19.77;;
42760;SDS011;31672;47.638;19.026;2022-12-18T18:03:40;54.30;;;19.37;;
42760;SDS011;31672;47.638;19.026;2022-12-18T18:08:43;67.03;;;23.17;;
42760;SDS011;31672;47.638;19.026;2022-12-18T18:13:46;59.83;;;20.90;;
42760;SDS011;31672;47.638;19.026;2022-12-18T18:19:06;53.77;;;18.43;;
42760;SDS011;31672;47.638;19.026;2022-12-18T18:24:14;68.67;;;23.87;;
42760;SDS011;31672;47.638;19.026;2022-12-18T18:29:21;71.80;;;24.80;;
42760;SDS011;31672;47.638;19.026;2022-12-18T18:34:29;60.50;;;21.33;;
42760;SDS011;31672;47.638;19.026;2022-12-18T18:39:34;45.60;;;17.97;;
42760;SDS011;31672;47.638;19.026;2022-12-18T18:44:37;68.80;;;22.97;;
42760;SDS011;31672;47.638;19.026;2022-12-18T18:49:45;47.87;;;19.10;;
42760;SDS011;31672;47.638;19.026;2022-12-18T18:54:48;43.07;;;16.37;;
42760;SDS011;31672;47.638;19.026;2022-12-18T19:00:12;50.67;;;16.47;;
42760;SDS011;31672;47.638;19.026;2022-12-18T19:05:17;45.07;;;16.10;;
42760;SDS011;31672;47.638;19.026;2022-12-18T19:10:20;39.67;;;15.13;;
42760;SDS011;31672;47.638;19.026;2022-12-18T19:15:23;34.83;;;12.20;;
42760;SDS011;31672;47.638;19.026;2022-12-18T19:20:26;31.37;;;13.07;;
42760;SDS011;31672;47.638;19.026;2022-12-18T19:25:29;44.60;;;16.87;;
42760;SDS011;31672;47.638;19.026;2022-12-18T19:30:43;45.23;;;15.73;;
42760;SDS011;31672;47.638;19.026;2022-12-18T19:35:47;48.17;;;19.20;;
42760;SDS011;31672;47.638;19.026;2022-12-18T19:40:50;61.77;;;22.97;;
42760;SDS011;31672;47.638;19.026;2022-12-18T19:45:54;44.37;;;16.27;;
42760;SDS011;31672;47.638;19.026;2022-12-18T19:50:57;55.50;;;18.90;;
42760;SDS011;31672;47.638;19.026;2022-12-18T19:56:04;41.87;;;15.40;;
42760;SDS011;31672;47.638;19.026;2022-12-18T20:01:13;39.57;;;16.13;;
42760;SDS011;31672;47.638;19.026;2022-12-18T20:06:20;54.77;;;18.63;;
42760;SDS011;31672;47.638;19.026;2022-12-18T20:11:37;48.87;;;16.00;;
42760;SDS011;31672;47.638;19.026;2022-12-18T20:16:43;35.90;;;14.83;;
42760;SDS011;31672;47.638;19.026;2022-12-18T20:21:46;39.90;;;13.97;;
42760;SDS011;31672;47.638;19.026;2022-12-18T20:26:49;36.83;;;13.80;;
42760;SDS011;31672;47.638;19.026;2022-12-18T20:31:52;53.50;;;19.07;;
42760;SDS011;31672;47.638;19.026;2022-12-18T20:36:55;66.97;;;22.70;;
42760;SDS011;31672;47.638;19.026;2022-12-18T20:41:58;114.27;;;36.57;;
42760;SDS011;31672;47.638;19.026;2022-12-18T20:47:02;95.53;;;32.30;;
42760;SDS011;31672;47.638;19.026;2022-12-18T20:52:10;93.23;;;31.67;;
42760;SDS011;31672;47.638;19.026;2022-12-18T20:57:13;74.33;;;22.87;;
42760;SDS011;31672;47.638;19.026;2022-12-18T21:02:16;72.13;;;24.77;;
42760;SDS011;31672;47.638;19.026;2022-12-18T21:07:22;68.17;;;23.83;;
42760;SDS011;31672;47.638;19.026;2022-12-18T21:12:25;64.27;;;22.67;;
42760;SDS011;31672;47.638;19.026;2022-12-18T21:17:52;71.30;;;22.03;;
42760;SDS011;31672;47.638;19.026;2022-12-18T21:22:55;62.53;;;20.03;;
42760;SDS011;31672;47.638;19.026;2022-12-18T21:28:05;54.43;;;20.90;;
42760;SDS011;31672;47.638;19.026;2022-12-18T21:33:08;68.67;;;21.07;;
42760;SDS011;31672;47.638;19.026;2022-12-18T21:38:12;68.47;;;21.50;;
42760;SDS011;31672;47.638;19.026;2022-12-18T21:43:15;48.10;;;17.47;;
42760;SDS011;31672;47.638;19.026;2022-12-18T21:48:39;57.43;;;19.57;;
42760;SDS011;31672;47.638;19.026;2022-12-18T21:53:44;56.63;;;18.77;;
42760;SDS011;31672;47.638;19.026;2022-12-18T21:58:50;49.97;;;18.43;;
42760;SDS011;31672;47.638;19.026;2022-12-18T22:03:58;55.20;;;19.83;;
42760;SDS011;31672;47.638;19.026;2022-12-18T22:09:01;65.37;;;21.37;;
42760;SDS011;31672;47.638;19.026;2022-12-18T22:14:05;65.90;;;21.70;;
42760;SDS011;31672;47.638;19.026;2022-12-18T22:19:09;63.67;;;19.63;;
42760;SDS011;31672;47.638;19.026;2022-12-18T22:24:16;60.40;;;18.90;;
42760;SDS011;31672;47.638;19.026;2022-12-18T22:29:23;65.00;;;20.00;;
42760;SDS011;31672;47.638;19.026;2022-12-18T22:34:45;59.37;;;14.03;;
42760;SDS011;31672;47.638;19.026;2022-12-18T22:39:48;60.97;;;16.50;;
42760;SDS011;31672;47.638;19.026;2022-12-18T22:44:51;94.60;;;17.93;;
42760;SDS011;31672;47.638;19.026;2022-12-18T22:49:54;52.63;;;15.37;;
42760;SDS011;31672;47.638;19.026;2022-12-18T22:54:57;48.07;;;15.87;;
42760;SDS011;31672;47.638;19.026;2022-12-18T23:00:00;62.67;;;17.00;;
42760;SDS011;31672;47.638;19.026;2022-12-18T23:05:04;72.47;;;15.50;;
42760;SDS011;31672;47.638;19.026;2022-12-18T23:10:08;47.73;;;15.90;;
42760;SDS011;31672;47.638;19.026;2022-12-18T23:15:11;63.93;;;17.47;;
42760;SDS011;31672;47.638;19.026;2022-12-18T23:20:15;58.03;;;16.07;;
42760;SDS011;31672;47.638;19.026;2022-12-18T23:25:18;58.03;;;15.57;;
42760;SDS011;31672;47.638;19.026;2022-12-18T23:30:21;65.30;;;16.67;;
42760;SDS011;31672;47.638;19.026;2022-12-18T23:35:25;65.40;;;18.30;;
42760;SDS011;31672;47.638;19.026;2022-12-18T23:40:28;74.40;;;20.30;;
42760;SDS011;31672;47.638;19.026;2022-12-18T23:45:35;60.57;;;17.33;;
42760;SDS011;31672;47.638;19.026;2022-12-18T23:50:39;53.70;;;13.40;;
42760;SDS011;31672;47.638;19.026;2022-12-18T23:55:42;57.80;;;15.73;;
